Puerto Natales, Chile
Current Conditions -  °F | °C
As of 10:00 PM on Saturday 22 Nov 2014 (Local Time) from SCCI Reporting Station
Broken Clouds Broken Clouds  
Wind Chill: 35°   Ceiling: 4500
Heat Index: 41°   Visibility: 6mi
Dew Point: 28°   Wind: 10mph
Humidity: 61%   Direction: 230°SW
Pressure: 29.59"   Gusts: NA
Location:  51.73°S, 72.51°W
Report Text: SCCI 230200Z 23009KT 9999 BKN045 05/M02 Q1002 NOSIG
Loading
Personal Weather Stations






























Interactive Weather Map New forecast layout! Learn more

10-Day Weather Forecast

Advertisements
Track Severe Weather on mobile